sensor_id;sensor_type;location;lat;lon;timestamp;P1;durP1;ratioP1;P2;durP2;ratioP2
45254;SDS011;30989;52.078;21.014;2024-01-25T00:01:57;8.98;;;1.20;;
45254;SDS011;30989;52.078;21.014;2024-01-25T00:04:23;10.55;;;1.90;;
45254;SDS011;30989;52.078;21.014;2024-01-25T00:06:48;4.65;;;0.98;;
45254;SDS011;30989;52.078;21.014;2024-01-25T00:09:14;7.97;;;1.20;;
45254;SDS011;30989;52.078;21.014;2024-01-25T00:11:39;6.00;;;1.35;;
45254;SDS011;30989;52.078;21.014;2024-01-25T00:14:04;5.78;;;1.33;;
45254;SDS011;30989;52.078;21.014;2024-01-25T00:16:30;3.53;;;1.00;;
45254;SDS011;30989;52.078;21.014;2024-01-25T00:18:55;6.00;;;1.13;;
45254;SDS011;30989;52.078;21.014;2024-01-25T00:21:21;8.15;;;1.55;;
45254;SDS011;30989;52.078;21.014;2024-01-25T00:23:46;5.30;;;1.20;;
45254;SDS011;30989;52.078;21.014;2024-01-25T00:26:12;7.75;;;1.15;;
45254;SDS011;30989;52.078;21.014;2024-01-25T00:28:37;5.35;;;1.30;;
45254;SDS011;30989;52.078;21.014;2024-01-25T00:31:03;6.65;;;1.40;;
45254;SDS011;30989;52.078;21.014;2024-01-25T00:33:29;3.60;;;0.95;;
45254;SDS011;30989;52.078;21.014;2024-01-25T00:35:54;5.00;;;1.83;;
45254;SDS011;30989;52.078;21.014;2024-01-25T00:38:20;4.63;;;1.02;;
45254;SDS011;30989;52.078;21.014;2024-01-25T00:40:46;9.93;;;1.65;;
45254;SDS011;30989;52.078;21.014;2024-01-25T00:43:12;6.43;;;1.00;;
45254;SDS011;30989;52.078;21.014;2024-01-25T00:45:37;4.70;;;1.10;;
45254;SDS011;30989;52.078;21.014;2024-01-25T00:48:03;4.45;;;1.15;;
45254;SDS011;30989;52.078;21.014;2024-01-25T00:50:29;10.45;;;1.65;;
45254;SDS011;30989;52.078;21.014;2024-01-25T00:52:55;10.63;;;1.70;;
45254;SDS011;30989;52.078;21.014;2024-01-25T00:55:20;10.85;;;2.20;;
45254;SDS011;30989;52.078;21.014;2024-01-25T00:57:46;11.90;;;3.25;;
45254;SDS011;30989;52.078;21.014;2024-01-25T01:00:12;5.68;;;1.30;;
45254;SDS011;30989;52.078;21.014;2024-01-25T01:02:45;11.07;;;2.35;;
45254;SDS011;30989;52.078;21.014;2024-01-25T01:05:11;10.02;;;1.75;;
45254;SDS011;30989;52.078;21.014;2024-01-25T01:07:38;7.63;;;1.90;;
45254;SDS011;30989;52.078;21.014;2024-01-25T01:10:06;9.35;;;1.70;;
45254;SDS011;30989;52.078;21.014;2024-01-25T01:12:33;11.25;;;1.92;;
45254;SDS011;30989;52.078;21.014;2024-01-25T01:14:59;13.20;;;2.55;;
45254;SDS011;30989;52.078;21.014;2024-01-25T01:17:24;10.40;;;1.98;;
45254;SDS011;30989;52.078;21.014;2024-01-25T01:19:50;9.30;;;2.00;;
45254;SDS011;30989;52.078;21.014;2024-01-25T01:22:15;11.20;;;2.38;;
45254;SDS011;30989;52.078;21.014;2024-01-25T01:24:40;10.18;;;1.85;;
45254;SDS011;30989;52.078;21.014;2024-01-25T01:27:06;15.55;;;1.70;;
45254;SDS011;30989;52.078;21.014;2024-01-25T01:29:31;8.05;;;2.33;;
45254;SDS011;30989;52.078;21.014;2024-01-25T01:31:57;5.07;;;1.58;;
45254;SDS011;30989;52.078;21.014;2024-01-25T01:34:23;7.60;;;1.45;;
45254;SDS011;30989;52.078;21.014;2024-01-25T01:36:48;7.90;;;1.58;;
45254;SDS011;30989;52.078;21.014;2024-01-25T01:39:13;8.48;;;2.40;;
45254;SDS011;30989;52.078;21.014;2024-01-25T01:41:39;10.35;;;1.70;;
45254;SDS011;30989;52.078;21.014;2024-01-25T01:44:04;6.05;;;1.88;;
45254;SDS011;30989;52.078;21.014;2024-01-25T01:46:32;13.30;;;2.75;;
45254;SDS011;30989;52.078;21.014;2024-01-25T01:49:12;13.77;;;3.05;;
45254;SDS011;30989;52.078;21.014;2024-01-25T01:51:39;9.55;;;1.77;;
45254;SDS011;30989;52.078;21.014;2024-01-25T01:54:07;17.13;;;2.05;;
45254;SDS011;30989;52.078;21.014;2024-01-25T01:56:33;9.77;;;2.03;;
45254;SDS011;30989;52.078;21.014;2024-01-25T01:58:59;15.85;;;2.47;;
45254;SDS011;30989;52.078;21.014;2024-01-25T02:01:26;9.70;;;1.75;;
45254;SDS011;30989;52.078;21.014;2024-01-25T02:03:52;10.45;;;2.30;;
45254;SDS011;30989;52.078;21.014;2024-01-25T02:06:18;11.63;;;2.42;;
45254;SDS011;30989;52.078;21.014;2024-01-25T02:08:45;12.20;;;3.15;;
45254;SDS011;30989;52.078;21.014;2024-01-25T02:11:14;14.65;;;2.63;;
45254;SDS011;30989;52.078;21.014;2024-01-25T02:13:40;11.40;;;2.03;;
45254;SDS011;30989;52.078;21.014;2024-01-25T02:16:06;15.30;;;2.47;;
45254;SDS011;30989;52.078;21.014;2024-01-25T02:18:33;19.08;;;2.83;;
45254;SDS011;30989;52.078;21.014;2024-01-25T02:20:58;17.15;;;2.15;;
45254;SDS011;30989;52.078;21.014;2024-01-25T02:23:24;8.23;;;2.10;;
45254;SDS011;30989;52.078;21.014;2024-01-25T02:25:50;11.23;;;2.58;;
45254;SDS011;30989;52.078;21.014;2024-01-25T02:28:15;12.15;;;2.35;;
45254;SDS011;30989;52.078;21.014;2024-01-25T02:30:41;13.50;;;2.25;;
45254;SDS011;30989;52.078;21.014;2024-01-25T02:33:06;10.25;;;2.83;;
45254;SDS011;30989;52.078;21.014;2024-01-25T02:35:32;10.32;;;3.22;;
45254;SDS011;30989;52.078;21.014;2024-01-25T02:37:57;10.70;;;1.90;;
45254;SDS011;30989;52.078;21.014;2024-01-25T02:40:22;7.88;;;1.42;;
45254;SDS011;30989;52.078;21.014;2024-01-25T02:42:48;12.10;;;2.10;;
45254;SDS011;30989;52.078;21.014;2024-01-25T02:45:13;16.73;;;2.50;;
45254;SDS011;30989;52.078;21.014;2024-01-25T02:47:39;8.00;;;2.10;;
45254;SDS011;30989;52.078;21.014;2024-01-25T02:50:04;11.95;;;2.92;;
45254;SDS011;30989;52.078;21.014;2024-01-25T02:52:30;11.25;;;2.65;;
45254;SDS011;30989;52.078;21.014;2024-01-25T02:54:56;13.45;;;2.53;;
45254;SDS011;30989;52.078;21.014;2024-01-25T02:57:21;15.68;;;1.98;;
45254;SDS011;30989;52.078;21.014;2024-01-25T02:59:47;7.60;;;1.70;;
45254;SDS011;30989;52.078;21.014;2024-01-25T03:02:13;10.27;;;2.05;;
45254;SDS011;30989;52.078;21.014;2024-01-25T03:04:38;12.35;;;1.95;;
45254;SDS011;30989;52.078;21.014;2024-01-25T03:07:04;12.02;;;1.98;;
45254;SDS011;30989;52.078;21.014;2024-01-25T03:09:29;14.15;;;3.05;;
45254;SDS011;30989;52.078;21.014;2024-01-25T03:11:55;11.98;;;2.72;;
45254;SDS011;30989;52.078;21.014;2024-01-25T03:14:20;10.52;;;3.15;;
45254;SDS011;30989;52.078;21.014;2024-01-25T03:16:46;12.98;;;1.98;;
45254;SDS011;30989;52.078;21.014;2024-01-25T03:19:12;10.45;;;2.25;;
45254;SDS011;30989;52.078;21.014;2024-01-25T03:21:37;8.73;;;1.27;;
45254;SDS011;30989;52.078;21.014;2024-01-25T03:24:03;9.80;;;2.13;;
45254;SDS011;30989;52.078;21.014;2024-01-25T03:26:29;9.13;;;2.03;;
45254;SDS011;30989;52.078;21.014;2024-01-25T03:28:54;6.70;;;2.08;;
45254;SDS011;30989;52.078;21.014;2024-01-25T03:31:20;9.45;;;1.92;;
45254;SDS011;30989;52.078;21.014;2024-01-25T03:33:45;15.65;;;3.50;;
45254;SDS011;30989;52.078;21.014;2024-01-25T03:36:13;11.35;;;2.90;;
45254;SDS011;30989;52.078;21.014;2024-01-25T03:38:39;16.73;;;2.42;;
45254;SDS011;30989;52.078;21.014;2024-01-25T03:41:04;10.73;;;1.83;;
45254;SDS011;30989;52.078;21.014;2024-01-25T03:43:30;7.47;;;1.67;;
45254;SDS011;30989;52.078;21.014;2024-01-25T03:45:55;14.35;;;2.00;;
45254;SDS011;30989;52.078;21.014;2024-01-25T03:48:20;11.65;;;2.20;;
45254;SDS011;30989;52.078;21.014;2024-01-25T03:50:47;11.88;;;2.42;;
45254;SDS011;30989;52.078;21.014;2024-01-25T03:53:12;9.70;;;1.70;;
45254;SDS011;30989;52.078;21.014;2024-01-25T03:55:38;11.52;;;2.63;;
45254;SDS011;30989;52.078;21.014;2024-01-25T03:58:03;8.18;;;2.88;;
45254;SDS011;30989;52.078;21.014;2024-01-25T04:00:29;10.82;;;1.80;;
45254;SDS011;30989;52.078;21.014;2024-01-25T04:02:54;16.70;;;4.30;;
45254;SDS011;30989;52.078;21.014;2024-01-25T04:05:20;19.20;;;3.35;;
45254;SDS011;30989;52.078;21.014;2024-01-25T04:07:46;10.23;;;2.63;;
45254;SDS011;30989;52.078;21.014;2024-01-25T04:10:11;16.65;;;2.72;;
45254;SDS011;30989;52.078;21.014;2024-01-25T04:12:36;11.68;;;2.45;;
45254;SDS011;30989;52.078;21.014;2024-01-25T04:15:02;12.85;;;2.20;;
45254;SDS011;30989;52.078;21.014;2024-01-25T04:17:28;11.65;;;2.47;;
45254;SDS011;30989;52.078;21.014;2024-01-25T04:19:53;10.77;;;1.75;;
45254;SDS011;30989;52.078;21.014;2024-01-25T04:22:19;8.95;;;2.83;;
45254;SDS011;30989;52.078;21.014;2024-01-25T04:24:44;13.07;;;2.10;;
45254;SDS011;30989;52.078;21.014;2024-01-25T04:27:13;15.30;;;3.60;;
45254;SDS011;30989;52.078;21.014;2024-01-25T04:29:39;12.70;;;2.08;;
45254;SDS011;30989;52.078;21.014;2024-01-25T04:32:07;9.68;;;1.77;;
45254;SDS011;30989;52.078;21.014;2024-01-25T04:34:33;16.70;;;2.03;;
45254;SDS011;30989;52.078;21.014;2024-01-25T04:36:58;19.15;;;3.25;;
45254;SDS011;30989;52.078;21.014;2024-01-25T04:39:23;10.55;;;2.08;;
45254;SDS011;30989;52.078;21.014;2024-01-25T04:41:49;13.75;;;2.13;;
45254;SDS011;30989;52.078;21.014;2024-01-25T04:44:14;9.73;;;1.77;;
45254;SDS011;30989;52.078;21.014;2024-01-25T04:49:06;12.85;;;1.80;;
45254;SDS011;30989;52.078;21.014;2024-01-25T04:51:32;12.48;;;1.90;;
45254;SDS011;30989;52.078;21.014;2024-01-25T04:53:57;6.80;;;1.80;;
45254;SDS011;30989;52.078;21.014;2024-01-25T04:56:23;15.02;;;2.15;;
45254;SDS011;30989;52.078;21.014;2024-01-25T04:58:48;15.23;;;1.88;;
45254;SDS011;30989;52.078;21.014;2024-01-25T05:01:13;9.32;;;2.33;;
45254;SDS011;30989;52.078;21.014;2024-01-25T05:03:39;7.75;;;1.63;;
45254;SDS011;30989;52.078;21.014;2024-01-25T05:06:04;8.25;;;2.10;;
45254;SDS011;30989;52.078;21.014;2024-01-25T05:08:30;8.45;;;1.92;;
45254;SDS011;30989;52.078;21.014;2024-01-25T05:10:56;17.08;;;3.10;;
45254;SDS011;30989;52.078;21.014;2024-01-25T05:13:22;15.02;;;2.72;;
45254;SDS011;30989;52.078;21.014;2024-01-25T05:15:48;9.88;;;2.10;;
45254;SDS011;30989;52.078;21.014;2024-01-25T05:18:13;9.90;;;2.15;;
45254;SDS011;30989;52.078;21.014;2024-01-25T05:20:39;9.40;;;2.60;;
45254;SDS011;30989;52.078;21.014;2024-01-25T05:23:04;11.57;;;2.15;;
45254;SDS011;30989;52.078;21.014;2024-01-25T05:25:30;11.45;;;1.77;;
45254;SDS011;30989;52.078;21.014;2024-01-25T05:27:56;7.13;;;1.85;;
45254;SDS011;30989;52.078;21.014;2024-01-25T05:30:23;7.50;;;2.42;;
45254;SDS011;30989;52.078;21.014;2024-01-25T05:32:49;10.13;;;2.70;;
45254;SDS011;30989;52.078;21.014;2024-01-25T05:35:16;16.23;;;2.15;;
45254;SDS011;30989;52.078;21.014;2024-01-25T05:37:42;16.90;;;2.55;;
45254;SDS011;30989;52.078;21.014;2024-01-25T05:40:08;9.55;;;2.38;;
45254;SDS011;30989;52.078;21.014;2024-01-25T05:42:36;10.25;;;1.75;;
45254;SDS011;30989;52.078;21.014;2024-01-25T05:45:02;14.63;;;2.60;;
45254;SDS011;30989;52.078;21.014;2024-01-25T05:47:28;10.63;;;2.58;;
45254;SDS011;30989;52.078;21.014;2024-01-25T05:49:54;19.50;;;2.53;;
45254;SDS011;30989;52.078;21.014;2024-01-25T05:52:20;8.73;;;1.88;;
45254;SDS011;30989;52.078;21.014;2024-01-25T05:54:46;14.27;;;2.50;;
45254;SDS011;30989;52.078;21.014;2024-01-25T05:57:12;11.57;;;2.28;;
45254;SDS011;30989;52.078;21.014;2024-01-25T05:59:38;11.70;;;1.90;;
45254;SDS011;30989;52.078;21.014;2024-01-25T06:02:03;8.50;;;2.47;;
45254;SDS011;30989;52.078;21.014;2024-01-25T06:04:29;12.48;;;2.03;;
45254;SDS011;30989;52.078;21.014;2024-01-25T06:06:55;7.38;;;1.92;;
45254;SDS011;30989;52.078;21.014;2024-01-25T06:09:20;7.65;;;2.25;;
45254;SDS011;30989;52.078;21.014;2024-01-25T06:11:45;12.63;;;2.10;;
45254;SDS011;30989;52.078;21.014;2024-01-25T06:14:11;4.63;;;1.70;;
45254;SDS011;30989;52.078;21.014;2024-01-25T06:16:36;11.43;;;2.65;;
45254;SDS011;30989;52.078;21.014;2024-01-25T06:19:03;11.88;;;3.00;;
45254;SDS011;30989;52.078;21.014;2024-01-25T06:21:28;9.35;;;2.80;;
45254;SDS011;30989;52.078;21.014;2024-01-25T06:23:54;12.82;;;2.60;;
45254;SDS011;30989;52.078;21.014;2024-01-25T06:26:20;9.07;;;1.73;;
45254;SDS011;30989;52.078;21.014;2024-01-25T06:28:48;8.95;;;2.17;;
45254;SDS011;30989;52.078;21.014;2024-01-25T06:31:14;16.27;;;2.30;;
45254;SDS011;30989;52.078;21.014;2024-01-25T06:33:39;15.95;;;1.92;;
45254;SDS011;30989;52.078;21.014;2024-01-25T06:36:05;11.25;;;2.40;;
45254;SDS011;30989;52.078;21.014;2024-01-25T06:38:31;11.63;;;2.35;;
45254;SDS011;30989;52.078;21.014;2024-01-25T06:40:56;8.43;;;2.05;;
45254;SDS011;30989;52.078;21.014;2024-01-25T06:43:21;13.10;;;1.90;;
45254;SDS011;30989;52.078;21.014;2024-01-25T06:45:47;7.70;;;1.65;;
45254;SDS011;30989;52.078;21.014;2024-01-25T06:48:12;15.65;;;3.10;;
45254;SDS011;30989;52.078;21.014;2024-01-25T06:50:38;14.02;;;2.75;;
45254;SDS011;30989;52.078;21.014;2024-01-25T06:53:04;8.80;;;2.00;;
45254;SDS011;30989;52.078;21.014;2024-01-25T06:55:29;17.33;;;2.20;;
45254;SDS011;30989;52.078;21.014;2024-01-25T06:57:54;10.00;;;2.63;;
45254;SDS011;30989;52.078;21.014;2024-01-25T07:00:21;15.52;;;2.53;;
45254;SDS011;30989;52.078;21.014;2024-01-25T07:02:47;8.77;;;2.60;;
45254;SDS011;30989;52.078;21.014;2024-01-25T07:05:13;10.82;;;2.08;;
45254;SDS011;30989;52.078;21.014;2024-01-25T07:07:38;12.73;;;2.15;;
45254;SDS011;30989;52.078;21.014;2024-01-25T07:10:07;12.75;;;3.10;;
45254;SDS011;30989;52.078;21.014;2024-01-25T07:12:33;15.48;;;3.00;;
45254;SDS011;30989;52.078;21.014;2024-01-25T07:14:58;14.20;;;2.35;;
45254;SDS011;30989;52.078;21.014;2024-01-25T07:17:24;6.65;;;1.88;;
45254;SDS011;30989;52.078;21.014;2024-01-25T07:19:49;13.88;;;2.10;;
45254;SDS011;30989;52.078;21.014;2024-01-25T07:22:15;14.80;;;2.85;;
45254;SDS011;30989;52.078;21.014;2024-01-25T07:24:42;6.45;;;1.67;;
45254;SDS011;30989;52.078;21.014;2024-01-25T07:27:08;8.57;;;2.72;;
45254;SDS011;30989;52.078;21.014;2024-01-25T07:29:35;4.95;;;1.98;;
45254;SDS011;30989;52.078;21.014;2024-01-25T07:32:00;10.23;;;1.52;;
45254;SDS011;30989;52.078;21.014;2024-01-25T07:34:25;6.70;;;1.35;;
45254;SDS011;30989;52.078;21.014;2024-01-25T07:36:51;7.47;;;1.65;;
45254;SDS011;30989;52.078;21.014;2024-01-25T07:39:16;13.35;;;2.10;;
45254;SDS011;30989;52.078;21.014;2024-01-25T07:41:42;12.25;;;2.45;;
45254;SDS011;30989;52.078;21.014;2024-01-25T07:44:07;8.23;;;2.13;;
45254;SDS011;30989;52.078;21.014;2024-01-25T07:46:33;13.43;;;3.10;;
45254;SDS011;30989;52.078;21.014;2024-01-25T07:48:58;12.40;;;2.58;;
45254;SDS011;30989;52.078;21.014;2024-01-25T07:51:23;11.40;;;2.40;;
45254;SDS011;30989;52.078;21.014;2024-01-25T07:53:53;19.08;;;3.60;;
45254;SDS011;30989;52.078;21.014;2024-01-25T07:56:19;8.30;;;2.40;;
45254;SDS011;30989;52.078;21.014;2024-01-25T07:58:47;11.77;;;2.33;;
45254;SDS011;30989;52.078;21.014;2024-01-25T08:01:16;12.20;;;2.00;;
45254;SDS011;30989;52.078;21.014;2024-01-25T08:03:47;8.18;;;2.22;;
45254;SDS011;30989;52.078;21.014;2024-01-25T08:06:13;9.60;;;2.28;;
45254;SDS011;30989;52.078;21.014;2024-01-25T08:08:39;9.45;;;1.90;;
45254;SDS011;30989;52.078;21.014;2024-01-25T08:11:04;10.55;;;2.03;;
45254;SDS011;30989;52.078;21.014;2024-01-25T08:13:30;8.15;;;1.58;;
45254;SDS011;30989;52.078;21.014;2024-01-25T08:15:56;9.65;;;2.40;;
45254;SDS011;30989;52.078;21.014;2024-01-25T08:18:22;4.70;;;1.70;;
45254;SDS011;30989;52.078;21.014;2024-01-25T08:20:54;9.27;;;2.67;;
45254;SDS011;30989;52.078;21.014;2024-01-25T08:23:20;9.55;;;1.55;;
45254;SDS011;30989;52.078;21.014;2024-01-25T08:25:46;7.32;;;2.03;;
45254;SDS011;30989;52.078;21.014;2024-01-25T08:28:11;6.80;;;1.75;;
45254;SDS011;30989;52.078;21.014;2024-01-25T08:30:37;14.35;;;1.77;;
45254;SDS011;30989;52.078;21.014;2024-01-25T08:33:02;5.38;;;2.00;;
45254;SDS011;30989;52.078;21.014;2024-01-25T08:35:28;9.70;;;1.90;;
45254;SDS011;30989;52.078;21.014;2024-01-25T08:37:55;6.13;;;1.67;;
45254;SDS011;30989;52.078;21.014;2024-01-25T08:40:23;8.20;;;2.42;;
45254;SDS011;30989;52.078;21.014;2024-01-25T08:42:49;10.18;;;1.65;;
45254;SDS011;30989;52.078;21.014;2024-01-25T08:45:14;7.00;;;1.52;;
45254;SDS011;30989;52.078;21.014;2024-01-25T08:47:40;7.88;;;1.80;;
45254;SDS011;30989;52.078;21.014;2024-01-25T08:50:05;7.22;;;1.77;;
45254;SDS011;30989;52.078;21.014;2024-01-25T08:52:36;4.95;;;1.20;;
45254;SDS011;30989;52.078;21.014;2024-01-25T08:55:03;8.95;;;1.67;;
45254;SDS011;30989;52.078;21.014;2024-01-25T08:57:30;3.58;;;1.20;;
45254;SDS011;30989;52.078;21.014;2024-01-25T08:59:56;6.35;;;1.20;;
45254;SDS011;30989;52.078;21.014;2024-01-25T09:02:23;3.47;;;1.08;;
45254;SDS011;30989;52.078;21.014;2024-01-25T09:04:55;9.02;;;1.60;;
45254;SDS011;30989;52.078;21.014;2024-01-25T09:07:20;7.15;;;1.48;;
45254;SDS011;30989;52.078;21.014;2024-01-25T09:09:49;4.68;;;1.40;;
45254;SDS011;30989;52.078;21.014;2024-01-25T09:12:14;3.20;;;1.33;;
45254;SDS011;30989;52.078;21.014;2024-01-25T09:14:41;4.47;;;1.52;;
45254;SDS011;30989;52.078;21.014;2024-01-25T09:17:07;4.75;;;1.13;;
45254;SDS011;30989;52.078;21.014;2024-01-25T09:19:33;5.80;;;1.70;;
45254;SDS011;30989;52.078;21.014;2024-01-25T09:21:59;5.03;;;1.80;;
45254;SDS011;30989;52.078;21.014;2024-01-25T09:24:29;4.53;;;1.30;;
45254;SDS011;30989;52.078;21.014;2024-01-25T09:26:55;8.73;;;1.55;;
45254;SDS011;30989;52.078;21.014;2024-01-25T09:29:21;6.18;;;1.40;;
45254;SDS011;30989;52.078;21.014;2024-01-25T09:31:47;7.13;;;1.63;;
45254;SDS011;30989;52.078;21.014;2024-01-25T09:34:12;8.38;;;1.65;;
45254;SDS011;30989;52.078;21.014;2024-01-25T09:36:38;4.32;;;1.40;;
45254;SDS011;30989;52.078;21.014;2024-01-25T09:39:03;3.60;;;1.75;;
45254;SDS011;30989;52.078;21.014;2024-01-25T09:41:29;3.05;;;1.48;;
45254;SDS011;30989;52.078;21.014;2024-01-25T09:43:55;2.40;;;1.10;;
45254;SDS011;30989;52.078;21.014;2024-01-25T09:46:20;6.45;;;1.55;;
45254;SDS011;30989;52.078;21.014;2024-01-25T09:48:49;8.30;;;1.23;;
45254;SDS011;30989;52.078;21.014;2024-01-25T09:51:14;2.60;;;1.40;;
45254;SDS011;30989;52.078;21.014;2024-01-25T09:53:40;2.30;;;1.05;;
45254;SDS011;30989;52.078;21.014;2024-01-25T09:56:07;3.80;;;1.60;;
45254;SDS011;30989;52.078;21.014;2024-01-25T09:58:36;3.45;;;1.40;;
45254;SDS011;30989;52.078;21.014;2024-01-25T10:01:10;4.20;;;1.58;;
45254;SDS011;30989;52.078;21.014;2024-01-25T10:03:37;5.55;;;1.42;;
45254;SDS011;30989;52.078;21.014;2024-01-25T10:06:05;6.13;;;1.58;;
45254;SDS011;30989;52.078;21.014;2024-01-25T10:08:31;5.05;;;1.70;;
45254;SDS011;30989;52.078;21.014;2024-01-25T10:10:57;2.83;;;1.50;;
45254;SDS011;30989;52.078;21.014;2024-01-25T10:13:22;4.38;;;1.40;;
45254;SDS011;30989;52.078;21.014;2024-01-25T10:15:47;4.95;;;1.92;;
45254;SDS011;30989;52.078;21.014;2024-01-25T10:18:14;3.22;;;1.23;;
45254;SDS011;30989;52.078;21.014;2024-01-25T10:20:41;3.92;;;1.60;;
45254;SDS011;30989;52.078;21.014;2024-01-25T10:23:08;4.00;;;1.35;;
45254;SDS011;30989;52.078;21.014;2024-01-25T10:25:34;3.75;;;1.65;;
45254;SDS011;30989;52.078;21.014;2024-01-25T10:28:01;4.07;;;1.40;;
45254;SDS011;30989;52.078;21.014;2024-01-25T10:30:34;2.92;;;1.42;;
45254;SDS011;30989;52.078;21.014;2024-01-25T10:33:00;3.50;;;1.60;;
45254;SDS011;30989;52.078;21.014;2024-01-25T10:35:27;4.60;;;1.83;;
45254;SDS011;30989;52.078;21.014;2024-01-25T10:37:53;4.22;;;1.80;;
45254;SDS011;30989;52.078;21.014;2024-01-25T10:40:19;4.93;;;1.30;;
45254;SDS011;30989;52.078;21.014;2024-01-25T10:42:46;3.72;;;1.30;;
45254;SDS011;30989;52.078;21.014;2024-01-25T10:45:11;4.50;;;1.30;;
45254;SDS011;30989;52.078;21.014;2024-01-25T10:47:37;4.97;;;1.60;;
45254;SDS011;30989;52.078;21.014;2024-01-25T10:50:06;3.10;;;1.20;;
45254;SDS011;30989;52.078;21.014;2024-01-25T10:52:34;3.85;;;1.42;;
45254;SDS011;30989;52.078;21.014;2024-01-25T10:55:01;2.72;;;1.40;;
45254;SDS011;30989;52.078;21.014;2024-01-25T10:57:34;4.57;;;0.90;;
45254;SDS011;30989;52.078;21.014;2024-01-25T11:00:01;3.53;;;1.35;;
45254;SDS011;30989;52.078;21.014;2024-01-25T11:02:28;2.95;;;1.00;;
45254;SDS011;30989;52.078;21.014;2024-01-25T11:04:54;3.80;;;1.15;;
45254;SDS011;30989;52.078;21.014;2024-01-25T11:07:20;2.95;;;1.10;;
45254;SDS011;30989;52.078;21.014;2024-01-25T11:09:46;2.33;;;1.02;;
45254;SDS011;30989;52.078;21.014;2024-01-25T11:12:17;4.07;;;1.08;;
45254;SDS011;30989;52.078;21.014;2024-01-25T11:14:43;3.15;;;1.10;;
45254;SDS011;30989;52.078;21.014;2024-01-25T11:17:18;2.42;;;0.90;;
45254;SDS011;30989;52.078;21.014;2024-01-25T11:19:44;4.13;;;1.45;;
45254;SDS011;30989;52.078;21.014;2024-01-25T11:22:10;5.18;;;1.10;;
45254;SDS011;30989;52.078;21.014;2024-01-25T11:24:37;2.70;;;1.20;;
45254;SDS011;30989;52.078;21.014;2024-01-25T11:27:04;4.03;;;1.50;;
45254;SDS011;30989;52.078;21.014;2024-01-25T11:29:30;2.03;;;0.88;;
45254;SDS011;30989;52.078;21.014;2024-01-25T11:31:56;3.90;;;1.33;;
45254;SDS011;30989;52.078;21.014;2024-01-25T11:34:22;3.03;;;1.10;;
45254;SDS011;30989;52.078;21.014;2024-01-25T11:36:48;3.33;;;1.73;;
45254;SDS011;30989;52.078;21.014;2024-01-25T11:39:15;4.57;;;1.33;;
45254;SDS011;30989;52.078;21.014;2024-01-25T11:41:44;5.50;;;1.77;;
45254;SDS011;30989;52.078;21.014;2024-01-25T11:44:10;3.05;;;1.02;;
45254;SDS011;30989;52.078;21.014;2024-01-25T11:46:36;3.85;;;1.10;;
45254;SDS011;30989;52.078;21.014;2024-01-25T11:49:02;5.63;;;1.75;;
45254;SDS011;30989;52.078;21.014;2024-01-25T11:51:27;2.47;;;1.00;;
45254;SDS011;30989;52.078;21.014;2024-01-25T11:53:53;2.15;;;1.23;;
45254;SDS011;30989;52.078;21.014;2024-01-25T11:56:22;3.50;;;1.00;;
45254;SDS011;30989;52.078;21.014;2024-01-25T11:58:53;3.85;;;1.60;;
45254;SDS011;30989;52.078;21.014;2024-01-25T12:01:21;3.78;;;0.98;;
45254;SDS011;30989;52.078;21.014;2024-01-25T12:03:48;2.70;;;1.45;;
45254;SDS011;30989;52.078;21.014;2024-01-25T12:06:14;4.97;;;1.23;;
45254;SDS011;30989;52.078;21.014;2024-01-25T12:08:39;4.78;;;1.33;;
45254;SDS011;30989;52.078;21.014;2024-01-25T12:11:05;5.22;;;1.50;;
45254;SDS011;30989;52.078;21.014;2024-01-25T12:13:35;6.53;;;2.08;;
45254;SDS011;30989;52.078;21.014;2024-01-25T12:16:02;5.68;;;1.35;;
45254;SDS011;30989;52.078;21.014;2024-01-25T12:18:29;5.72;;;1.65;;
45254;SDS011;30989;52.078;21.014;2024-01-25T12:20:57;5.80;;;1.80;;
45254;SDS011;30989;52.078;21.014;2024-01-25T12:23:23;3.75;;;1.60;;
45254;SDS011;30989;52.078;21.014;2024-01-25T12:25:54;8.23;;;1.70;;
45254;SDS011;30989;52.078;21.014;2024-01-25T12:28:20;8.40;;;1.80;;
45254;SDS011;30989;52.078;21.014;2024-01-25T12:30:46;4.65;;;1.52;;
45254;SDS011;30989;52.078;21.014;2024-01-25T12:33:12;5.63;;;1.98;;
45254;SDS011;30989;52.078;21.014;2024-01-25T12:35:40;6.43;;;1.40;;
45254;SDS011;30989;52.078;21.014;2024-01-25T12:38:06;7.60;;;1.70;;
45254;SDS011;30989;52.078;21.014;2024-01-25T12:40:33;6.20;;;1.60;;
45254;SDS011;30989;52.078;21.014;2024-01-25T12:42:58;6.57;;;1.70;;
45254;SDS011;30989;52.078;21.014;2024-01-25T12:45:23;5.15;;;2.17;;
45254;SDS011;30989;52.078;21.014;2024-01-25T12:47:49;8.68;;;2.30;;
45254;SDS011;30989;52.078;21.014;2024-01-25T12:50:14;8.18;;;1.90;;
45254;SDS011;30989;52.078;21.014;2024-01-25T12:52:40;4.57;;;1.65;;
45254;SDS011;30989;52.078;21.014;2024-01-25T12:55:05;4.68;;;1.85;;
45254;SDS011;30989;52.078;21.014;2024-01-25T12:57:31;5.63;;;1.83;;
45254;SDS011;30989;52.078;21.014;2024-01-25T12:59:57;6.03;;;1.75;;
45254;SDS011;30989;52.078;21.014;2024-01-25T13:02:22;6.90;;;1.80;;
45254;SDS011;30989;52.078;21.014;2024-01-25T13:04:48;6.70;;;2.33;;
45254;SDS011;30989;52.078;21.014;2024-01-25T13:07:15;3.65;;;1.10;;
45254;SDS011;30989;52.078;21.014;2024-01-25T13:09:40;3.25;;;1.75;;
45254;SDS011;30989;52.078;21.014;2024-01-25T13:12:06;3.45;;;1.25;;
45254;SDS011;30989;52.078;21.014;2024-01-25T13:14:32;4.13;;;1.58;;
45254;SDS011;30989;52.078;21.014;2024-01-25T13:16:58;3.53;;;1.13;;
45254;SDS011;30989;52.078;21.014;2024-01-25T13:19:24;2.50;;;1.20;;
45254;SDS011;30989;52.078;21.014;2024-01-25T13:21:49;1.80;;;0.90;;
45254;SDS011;30989;52.078;21.014;2024-01-25T13:24:15;4.47;;;1.63;;
45254;SDS011;30989;52.078;21.014;2024-01-25T13:26:41;2.13;;;1.02;;
45254;SDS011;30989;52.078;21.014;2024-01-25T13:29:06;3.63;;;1.60;;
45254;SDS011;30989;52.078;21.014;2024-01-25T13:31:32;3.67;;;1.27;;
45254;SDS011;30989;52.078;21.014;2024-01-25T13:33:57;3.55;;;1.20;;
45254;SDS011;30989;52.078;21.014;2024-01-25T13:36:23;5.40;;;1.23;;
45254;SDS011;30989;52.078;21.014;2024-01-25T13:38:48;2.55;;;1.10;;
45254;SDS011;30989;52.078;21.014;2024-01-25T13:41:14;2.28;;;1.20;;
45254;SDS011;30989;52.078;21.014;2024-01-25T13:43:39;2.65;;;0.90;;
45254;SDS011;30989;52.078;21.014;2024-01-25T13:46:05;2.53;;;1.00;;
45254;SDS011;30989;52.078;21.014;2024-01-25T13:48:31;4.70;;;1.25;;
45254;SDS011;30989;52.078;21.014;2024-01-25T13:50:56;2.95;;;1.10;;
45254;SDS011;30989;52.078;21.014;2024-01-25T13:53:21;4.28;;;1.25;;
45254;SDS011;30989;52.078;21.014;2024-01-25T13:55:47;2.42;;;0.90;;
45254;SDS011;30989;52.078;21.014;2024-01-25T13:58:12;3.05;;;1.23;;
45254;SDS011;30989;52.078;21.014;2024-01-25T14:00:38;2.92;;;1.08;;
45254;SDS011;30989;52.078;21.014;2024-01-25T14:03:03;3.88;;;1.33;;
45254;SDS011;30989;52.078;21.014;2024-01-25T14:05:29;4.00;;;1.60;;
45254;SDS011;30989;52.078;21.014;2024-01-25T14:07:54;2.70;;;1.17;;
45254;SDS011;30989;52.078;21.014;2024-01-25T14:10:20;6.50;;;1.40;;
45254;SDS011;30989;52.078;21.014;2024-01-25T14:12:45;5.78;;;1.48;;
45254;SDS011;30989;52.078;21.014;2024-01-25T14:15:12;3.78;;;1.48;;
45254;SDS011;30989;52.078;21.014;2024-01-25T14:17:38;3.20;;;1.52;;
45254;SDS011;30989;52.078;21.014;2024-01-25T14:20:03;5.90;;;1.23;;
45254;SDS011;30989;52.078;21.014;2024-01-25T14:22:30;4.45;;;1.45;;
45254;SDS011;30989;52.078;21.014;2024-01-25T14:24:56;3.92;;;1.27;;
45254;SDS011;30989;52.078;21.014;2024-01-25T14:27:22;4.25;;;1.80;;